Time;durP1;ratioP1;P1;durP2;ratioP2;P2;SDS_P1;SDS_P2;PMS_P1;PMS_P2;Temp;Humidity;BMP_temperature;BMP_pressure;BME280_temperature;BME280_humidity;BME280_pressure;Samples;Min_cycle;Max_cycle;Signal;HPM_P1;HPM_P2
2022/12/04 00:00:38;;;;;;;;;;;5.30;99.90;;;;;;5076176;28;19931;-83
2022/12/04 00:03:04;;;;;;;;;;;5.20;99.90;;;;;;5095154;28;19916;-82
2022/12/04 00:05:29;;;;;;;;;;;5.30;99.90;;;;;;5075597;28;19917;-83
2022/12/04 00:07:55;;;;;;;;;;;5.30;99.90;;;;;;5075706;28;20362;-82
2022/12/04 00:10:20;;;;;;;;;;;5.30;99.90;;;;;;5075702;28;19916;-82
2022/12/04 00:12:46;;;;;;;;;;;5.30;99.90;;;;;;5075256;28;19908;-82
2022/12/04 00:15:11;;;;;;;;;;;5.30;99.90;;;;;;5075225;28;19908;-83
2022/12/04 00:17:37;;;;;;;;;;;5.30;99.90;;;;;;5075395;28;19916;-83
2022/12/04 00:20:02;;;;;;;;;;;5.30;99.90;;;;;;5073980;28;19956;-83
2022/12/04 00:22:28;;;;;;;;;;;5.30;99.90;;;;;;5074947;28;19908;-83
2022/12/04 00:24:53;;;;;;;;;;;5.20;99.90;;;;;;5073819;28;19912;-83
2022/12/04 00:27:19;;;;;;;;;;;5.20;99.90;;;;;;5075198;28;19915;-84
2022/12/04 00:29:44;;;;;;;;;;;5.20;99.90;;;;;;5074971;28;19912;-83
2022/12/04 00:32:10;;;;;;;;;;;5.20;99.90;;;;;;5073845;28;19947;-84
2022/12/04 00:34:35;;;;;;;;;;;5.10;99.90;;;;;;5075004;28;20017;-84
2022/12/04 00:37:00;;;;;;;;;;;5.20;99.90;;;;;;5073832;28;19913;-83
2022/12/04 00:39:26;;;;;;;;;;;5.20;99.90;;;;;;5073800;28;19916;-83
2022/12/04 00:41:51;;;;;;;;;;;5.20;99.90;;;;;;5074859;28;20278;-83
2022/12/04 00:44:17;;;;;;;;;;;5.10;99.90;;;;;;5073517;28;19991;-83
2022/12/04 00:46:42;;;;;;;;;;;5.10;99.90;;;;;;5074810;28;19908;-83
2022/12/04 00:49:08;;;;;;;;;;;5.10;99.90;;;;;;5073545;28;19938;-85
2022/12/04 00:51:33;;;;;;;;;;;5.10;99.90;;;;;;5073213;28;20446;-83
2022/12/04 00:53:59;;;;;;;;;;;5.10;99.90;;;;;;5073550;28;19953;-84
2022/12/04 00:56:26;;;;;;;;;;;5.20;99.90;;;;;;5073403;28;19908;-82
2022/12/04 00:58:56;;;;;;;;;;;5.10;99.90;;;;;;5073447;28;19913;-83
2022/12/04 01:01:22;;;;;;;;;;;5.10;99.90;;;;;;5073253;28;19912;-83
2022/12/04 01:03:48;;;;;;;;;;;5.10;99.90;;;;;;5073203;28;19970;-84
2022/12/04 01:06:21;;;;;;;;;;;5.10;99.90;;;;;;5073342;28;19916;-84
2022/12/04 01:08:47;;;;;;;;;;;5.10;99.90;;;;;;5073148;28;19913;-84
2022/12/04 01:11:13;;;;;;;;;;;5.10;99.90;;;;;;5074315;28;20007;-84
2022/12/04 01:13:38;;;;;;;;;;;5.10;99.90;;;;;;5073195;28;20405;-84
2022/12/04 01:16:04;;;;;;;;;;;5.20;99.90;;;;;;5074591;28;19915;-85
2022/12/04 01:18:29;;;;;;;;;;;5.10;99.90;;;;;;5074511;28;20392;-83
2022/12/04 01:20:54;;;;;;;;;;;5.10;99.90;;;;;;5073727;28;19908;-85
2022/12/04 01:23:20;;;;;;;;;;;5.10;99.90;;;;;;5072855;28;19909;-83
2022/12/04 01:25:50;;;;;;;;;;;5.10;99.90;;;;;;5072961;28;19950;-84
2022/12/04 01:28:15;;;;;;;;;;;5.10;99.90;;;;;;5072949;28;19908;-83
2022/12/04 01:30:40;;;;;;;;;;;5.10;99.90;;;;;;5072925;28;19981;-84
2022/12/04 01:33:06;;;;;;;;;;;5.10;99.90;;;;;;5073041;28;19909;-84
2022/12/04 01:35:31;;;;;;;;;;;5.10;99.90;;;;;;5074262;28;19908;-84
2022/12/04 01:37:57;;;;;;;;;;;5.10;99.90;;;;;;5074319;28;19908;-85
2022/12/04 01:40:22;;;;;;;;;;;5.10;99.90;;;;;;5074285;28;19955;-83
2022/12/04 01:42:48;;;;;;;;;;;5.00;99.90;;;;;;5072565;28;19916;-84
2022/12/04 01:45:28;;;;;;;;;;;5.00;99.90;;;;;;5072519;28;19909;-83
2022/12/04 01:47:56;;;;;;;;;;;5.10;99.90;;;;;;5072849;28;19909;-84
2022/12/04 01:50:22;;;;;;;;;;;5.10;99.90;;;;;;5072347;28;20007;-85
2022/12/04 01:52:47;;;;;;;;;;;5.10;99.90;;;;;;5073623;28;19956;-86
2022/12/04 01:55:13;;;;;;;;;;;5.10;99.90;;;;;;5072625;28;20343;-84
2022/12/04 01:57:39;;;;;;;;;;;5.10;99.90;;;;;;5072564;28;19908;-83
2022/12/04 02:00:08;;;;;;;;;;;5.10;99.90;;;;;;5073815;28;20377;-85
2022/12/04 02:02:35;;;;;;;;;;;5.10;99.90;;;;;;5072045;28;20007;-83
2022/12/04 02:05:02;;;;;;;;;;;5.10;99.90;;;;;;5073665;28;19966;-84
2022/12/04 02:07:28;;;;;;;;;;;5.00;99.90;;;;;;5072492;28;19951;-84
2022/12/04 02:09:54;;;;;;;;;;;5.10;99.90;;;;;;5072380;28;19958;-86
2022/12/04 02:12:34;;;;;;;;;;;5.10;99.90;;;;;;5073666;28;19948;-85
2022/12/04 02:15:05;;;;;;;;;;;5.10;99.90;;;;;;5073540;28;20374;-85
2022/12/04 02:17:34;;;;;;;;;;;5.00;99.90;;;;;;5072329;28;20401;-84
2022/12/04 02:19:59;;;;;;;;;;;5.00;99.90;;;;;;5072435;28;19948;-84
2022/12/04 02:22:31;;;;;;;;;;;5.00;99.90;;;;;;5072027;28;19908;-84
2022/12/04 02:24:59;;;;;;;;;;;5.00;99.90;;;;;;5072384;28;20302;-83
2022/12/04 02:27:31;;;;;;;;;;;5.00;99.90;;;;;;5072176;28;19909;-83
2022/12/04 02:29:59;;;;;;;;;;;5.00;99.90;;;;;;5073641;28;20293;-84
2022/12/04 02:32:34;;;;;;;;;;;5.00;99.90;;;;;;5072733;28;20290;-83
2022/12/04 02:35:09;;;;;;;;;;;5.00;99.90;;;;;;5071977;28;20443;-85
2022/12/04 02:37:36;;;;;;;;;;;5.00;99.90;;;;;;5072066;28;19909;-85
2022/12/04 02:40:15;;;;;;;;;;;5.00;99.90;;;;;;5072052;28;19912;-84
2022/12/04 02:42:42;;;;;;;;;;;5.10;99.90;;;;;;5072340;28;19939;-84
2022/12/04 02:45:13;;;;;;;;;;;5.10;99.90;;;;;;5071934;28;19913;-85
2022/12/04 02:47:40;;;;;;;;;;;5.10;99.90;;;;;;5072092;28;20294;-85
2022/12/04 02:50:07;;;;;;;;;;;5.00;99.90;;;;;;5073075;28;19966;-83
2022/12/04 02:52:38;;;;;;;;;;;5.10;99.90;;;;;;5071630;28;20015;-85
2022/12/04 02:55:06;;;;;;;;;;;5.10;99.90;;;;;;5071937;28;19913;-83
2022/12/04 02:57:34;;;;;;;;;;;5.00;99.90;;;;;;5073406;28;19917;-83
2022/12/04 03:00:00;;;;;;;;;;;5.10;99.90;;;;;;5073403;28;20293;-82
2022/12/04 03:02:33;;;;;;;;;;;5.10;99.90;;;;;;5071620;28;19908;-85
2022/12/04 03:05:01;;;;;;;;;;;5.10;99.90;;;;;;5090275;22;19928;-87
2022/12/04 03:07:31;;;;;;;;;;;5.10;99.90;;;;;;5084378;28;19908;-87
2022/12/04 03:09:59;;;;;;;;;;;5.10;99.90;;;;;;5082046;28;19917;-86
2022/12/04 03:12:39;;;;;;;;;;;5.10;99.90;;;;;;5071651;28;20358;-86
2022/12/04 03:15:08;;;;;;;;;;;5.10;99.90;;;;;;5071807;28;19961;-86
2022/12/04 03:17:40;;;;;;;;;;;5.10;99.90;;;;;;5072092;28;19915;-86
2022/12/04 03:20:08;;;;;;;;;;;5.10;99.90;;;;;;5071756;28;19908;-85
2022/12/04 03:22:36;;;;;;;;;;;5.00;99.90;;;;;;5071468;28;20254;-86
2022/12/04 03:25:02;;;;;;;;;;;5.00;99.90;;;;;;5071790;28;20011;-86
2022/12/04 03:27:32;;;;;;;;;;;5.00;99.90;;;;;;5071735;28;19909;-86
2022/12/04 03:30:06;;;;;;;;;;;4.90;99.90;;;;;;5071593;28;19919;-86
2022/12/04 03:32:46;;;;;;;;;;;4.80;99.90;;;;;;5071439;28;19915;-86
2022/12/04 03:35:17;;;;;;;;;;;4.80;99.90;;;;;;5072989;28;19908;-86
2022/12/04 03:37:59;;;;;;;;;;;4.70;99.90;;;;;;5071745;28;19908;-86
2022/12/04 03:40:30;;;;;;;;;;;4.70;99.90;;;;;;5071802;28;19916;-85
2022/12/04 03:43:10;;;;;;;;;;;4.60;99.90;;;;;;5071387;28;19915;-86
2022/12/04 03:45:40;;;;;;;;;;;4.60;99.90;;;;;;5075513;28;19909;-86
2022/12/04 03:48:28;;;;;;;;;;;4.60;99.90;;;;;;5076663;28;19943;-86
2022/12/04 03:51:15;;;;;;;;;;;4.60;99.90;;;;;;5075332;28;19912;-86
2022/12/04 03:53:44;;;;;;;;;;;4.60;99.90;;;;;;5075331;28;19946;-86
2022/12/04 03:56:12;;;;;;;;;;;4.60;99.90;;;;;;5075063;28;20377;-86
2022/12/04 03:58:40;;;;;;;;;;;4.60;99.90;;;;;;5075024;28;20281;-86
2022/12/04 04:01:08;;;;;;;;;;;4.60;99.90;;;;;;5084563;28;19909;-87
2022/12/04 04:03:35;;;;;;;;;;;4.60;99.90;;;;;;5089040;28;19908;-87
2022/12/04 04:06:04;;;;;;;;;;;4.60;99.90;;;;;;5088008;28;19924;-87
2022/12/04 04:08:33;;;;;;;;;;;4.60;99.90;;;;;;5088626;28;19909;-87
2022/12/04 04:11:02;;;;;;;;;;;4.60;99.90;;;;;;5084031;28;19958;-86
2022/12/04 04:24:31;;;;;;;;;;;4.50;99.90;;;;;;5056031;28;19915;-86
2022/12/04 04:26:57;;;;;;;;;;;4.50;99.90;;;;;;5054590;28;20004;-86
2022/12/04 04:29:23;;;;;;;;;;;4.60;99.90;;;;;;5071071;28;19920;-86
2022/12/04 04:32:05;;;;;;;;;;;4.60;99.90;;;;;;5070880;28;19913;-85
2022/12/04 04:34:46;;;;;;;;;;;4.60;99.90;;;;;;5070587;28;19913;-87
2022/12/04 04:37:15;;;;;;;;;;;4.70;99.90;;;;;;5070556;28;19909;-88
2022/12/04 04:39:46;;;;;;;;;;;4.60;99.90;;;;;;5053760;28;19915;-88
2022/12/04 04:42:23;;;;;;;;;;;4.60;99.90;;;;;;5056518;28;19908;-87
2022/12/04 04:45:11;;;;;;;;;;;4.60;99.90;;;;;;5084244;28;19909;-87
2022/12/04 04:47:56;;;;;;;;;;;4.60;99.90;;;;;;5084237;28;20340;-88
2022/12/04 04:50:21;;;;;;;;;;;4.70;99.90;;;;;;5067072;28;19913;-87
2022/12/04 04:52:49;;;;;;;;;;;4.70;99.90;;;;;;5084211;28;19916;-87
2022/12/04 04:55:15;;;;;;;;;;;4.70;99.90;;;;;;5068413;28;20285;-87
2022/12/04 04:57:41;;;;;;;;;;;4.70;99.90;;;;;;5083344;28;19944;-87
2022/12/04 05:00:09;;;;;;;;;;;4.70;99.90;;;;;;5083767;28;19941;-87
2022/12/04 05:02:35;;;;;;;;;;;4.70;99.90;;;;;;5083623;28;19909;-87
2022/12/04 05:05:00;;;;;;;;;;;4.70;99.90;;;;;;5084401;28;19912;-87
2022/12/04 05:07:25;;;;;;;;;;;4.70;99.90;;;;;;5083737;28;19912;-87
2022/12/04 05:09:51;;;;;;;;;;;4.70;99.90;;;;;;5083514;28;19919;-87
2022/12/04 05:12:16;;;;;;;;;;;4.70;99.90;;;;;;5082690;28;19998;-87
2022/12/04 05:14:42;;;;;;;;;;;4.70;99.90;;;;;;5083331;28;19909;-87
2022/12/04 05:17:07;;;;;;;;;;;4.70;99.90;;;;;;5083152;28;19909;-87
2022/12/04 05:22:31;;;;;;;;;;;4.60;99.90;;;;;;5057890;28;20047;-88
2022/12/04 05:24:56;;;;;;;;;;;4.60;99.90;;;;;;5069557;28;19909;-88
2022/12/04 05:27:22;;;;;;;;;;;4.60;99.90;;;;;;5069316;28;20290;-87
2022/12/04 05:29:50;;;;;;;;;;;4.60;99.90;;;;;;5053745;28;19913;-86
2022/12/04 05:32:16;;;;;;;;;;;4.60;99.90;;;;;;5069131;28;20290;-86
2022/12/04 05:34:41;;;;;;;;;;;4.50;99.90;;;;;;5069515;28;19909;-86
2022/12/04 05:37:06;;;;;;;;;;;4.50;99.90;;;;;;5069917;28;19909;-86
2022/12/04 05:39:33;;;;;;;;;;;4.50;99.90;;;;;;5070016;28;19959;-86
2022/12/04 05:41:59;;;;;;;;;;;4.50;99.90;;;;;;5069567;28;19940;-85
2022/12/04 05:44:24;;;;;;;;;;;4.50;99.90;;;;;;5054113;28;19951;-86
2022/12/04 05:46:49;;;;;;;;;;;4.50;99.90;;;;;;5069913;28;19963;-86
2022/12/04 05:49:15;;;;;;;;;;;4.50;99.90;;;;;;5069373;28;19962;-85
2022/12/04 05:51:40;;;;;;;;;;;4.60;99.90;;;;;;5069250;28;20366;-86
2022/12/04 05:54:06;;;;;;;;;;;4.50;99.90;;;;;;5069394;28;19909;-85
2022/12/04 05:56:31;;;;;;;;;;;4.50;99.90;;;;;;5069419;28;19909;-86
2022/12/04 05:58:57;;;;;;;;;;;4.60;99.90;;;;;;5053910;28;19908;-85
2022/12/04 06:01:23;;;;;;;;;;;4.60;99.90;;;;;;5069085;28;20289;-86
2022/12/04 06:03:49;;;;;;;;;;;4.50;99.90;;;;;;5069227;28;19944;-85
2022/12/04 06:06:15;;;;;;;;;;;4.50;99.90;;;;;;5068943;28;20387;-85
2022/12/04 06:08:41;;;;;;;;;;;4.50;99.90;;;;;;5053504;28;19909;-85
2022/12/04 06:11:13;;;;;;;;;;;4.50;99.90;;;;;;5068868;28;20385;-85
2022/12/04 06:13:40;;;;;;;;;;;4.50;99.90;;;;;;5068819;28;19913;-86
2022/12/04 06:16:06;;;;;;;;;;;4.50;99.90;;;;;;5068581;28;19909;-87
2022/12/04 06:18:31;;;;;;;;;;;4.40;99.90;;;;;;5068561;28;19909;-87
2022/12/04 06:20:57;;;;;;;;;;;4.40;99.90;;;;;;5068379;28;20011;-84
2022/12/04 06:23:23;;;;;;;;;;;4.40;99.90;;;;;;5077386;28;19909;-86
2022/12/04 06:25:48;;;;;;;;;;;4.40;99.90;;;;;;5068896;28;19920;-85
2022/12/04 06:28:13;;;;;;;;;;;4.50;99.90;;;;;;5068748;28;19923;-85
2022/12/04 06:30:39;;;;;;;;;;;4.50;99.90;;;;;;5068759;28;19913;-86
2022/12/04 06:33:04;;;;;;;;;;;4.50;99.90;;;;;;5072185;28;19908;-87
2022/12/04 06:35:30;;;;;;;;;;;4.50;99.90;;;;;;5068184;28;19917;-88
2022/12/04 06:37:55;;;;;;;;;;;4.50;99.90;;;;;;5052985;28;19915;-86
2022/12/04 06:40:21;;;;;;;;;;;4.40;99.90;;;;;;5053219;28;20093;-86
2022/12/04 06:42:46;;;;;;;;;;;4.40;99.90;;;;;;5068428;28;19909;-86
2022/12/04 06:45:12;;;;;;;;;;;4.40;99.90;;;;;;5068687;28;19916;-85
2022/12/04 06:47:37;;;;;;;;;;;4.40;99.90;;;;;;5068528;28;20012;-88
2022/12/04 06:50:03;;;;;;;;;;;4.30;99.90;;;;;;5070854;28;19912;-87
2022/12/04 06:52:31;;;;;;;;;;;4.30;99.90;;;;;;5081978;28;19920;-87
2022/12/04 06:54:57;;;;;;;;;;;4.30;99.90;;;;;;5081229;28;19932;-87
2022/12/04 06:57:23;;;;;;;;;;;4.30;99.90;;;;;;5081114;28;20031;-87
2022/12/04 06:59:49;;;;;;;;;;;4.40;99.90;;;;;;5071684;28;19994;-87
2022/12/04 07:02:14;;;;;;;;;;;4.30;99.90;;;;;;5082016;28;19915;-88
2022/12/04 07:04:40;;;;;;;;;;;4.30;99.90;;;;;;5082247;28;19959;-87
2022/12/04 07:07:07;;;;;;;;;;;4.20;99.90;;;;;;5082389;28;19913;-88
2022/12/04 07:09:32;;;;;;;;;;;4.20;99.90;;;;;;5082285;28;19951;-87
2022/12/04 07:11:58;;;;;;;;;;;4.10;99.90;;;;;;5082344;28;19920;-87
2022/12/04 07:14:23;;;;;;;;;;;4.20;99.90;;;;;;5081888;28;19995;-87
2022/12/04 07:16:49;;;;;;;;;;;4.20;99.90;;;;;;5081682;28;19920;-87
2022/12/04 07:19:14;;;;;;;;;;;4.10;99.90;;;;;;5082163;28;19909;-87
2022/12/04 07:21:40;;;;;;;;;;;4.10;99.90;;;;;;5084004;28;19909;-87
2022/12/04 07:24:06;;;;;;;;;;;4.00;99.90;;;;;;5080042;28;19909;-86
2022/12/04 07:26:32;;;;;;;;;;;4.00;99.90;;;;;;5072130;28;19909;-86
2022/12/04 07:28:57;;;;;;;;;;;4.00;99.90;;;;;;5072318;28;20285;-86
2022/12/04 07:31:23;;;;;;;;;;;3.90;99.90;;;;;;5056470;28;19909;-86
2022/12/04 07:33:49;;;;;;;;;;;3.90;99.90;;;;;;5077401;28;19913;-87
2022/12/04 07:36:16;;;;;;;;;;;3.90;99.90;;;;;;5085632;28;19955;-87
2022/12/04 07:38:42;;;;;;;;;;;3.80;99.90;;;;;;5076712;28;19909;-87
2022/12/04 07:41:07;;;;;;;;;;;3.80;99.90;;;;;;5071526;28;19935;-86
2022/12/04 07:43:33;;;;;;;;;;;3.80;99.90;;;;;;5061324;28;19940;-87
2022/12/04 07:46:03;;;;;;;;;;;3.80;99.90;;;;;;5077767;28;19913;-85
2022/12/04 07:48:28;;;;;;;;;;;3.70;99.90;;;;;;5056366;28;19937;-86
2022/12/04 07:51:11;;;;;;;;;;;3.60;99.90;;;;;;5071288;28;19908;-86
2022/12/04 07:53:37;;;;;;;;;;;3.60;99.90;;;;;;5082456;28;20392;-87
2022/12/04 07:56:03;;;;;;;;;;;3.60;99.90;;;;;;5085591;28;19908;-87
2022/12/04 07:58:29;;;;;;;;;;;3.60;99.90;;;;;;5081016;28;19958;-86
2022/12/04 08:00:54;;;;;;;;;;;3.70;99.90;;;;;;5071147;28;20328;-86
2022/12/04 08:03:20;;;;;;;;;;;3.70;99.90;;;;;;5071735;28;20366;-86
2022/12/04 08:05:45;;;;;;;;;;;3.70;99.90;;;;;;5071363;28;19917;-86
2022/12/04 08:08:11;;;;;;;;;;;3.70;99.90;;;;;;5071561;28;20007;-85
2022/12/04 08:10:38;;;;;;;;;;;3.70;99.90;;;;;;5054966;28;19962;-86
2022/12/04 08:13:04;;;;;;;;;;;3.70;99.90;;;;;;5056027;28;19931;-85
2022/12/04 08:15:29;;;;;;;;;;;3.80;99.90;;;;;;5075162;28;20003;-88
2022/12/04 08:17:55;;;;;;;;;;;3.70;99.90;;;;;;5081080;28;19909;-86
2022/12/04 08:20:20;;;;;;;;;;;3.70;99.90;;;;;;5083263;28;19908;-87
2022/12/04 08:22:46;;;;;;;;;;;3.80;99.90;;;;;;5084329;28;19948;-88
2022/12/04 08:25:12;;;;;;;;;;;3.70;99.90;;;;;;5072357;28;19908;-88
2022/12/04 08:27:37;;;;;;;;;;;3.80;99.90;;;;;;5070616;28;19935;-87
2022/12/04 08:30:03;;;;;;;;;;;3.90;99.90;;;;;;5070330;28;19971;-87
2022/12/04 08:32:28;;;;;;;;;;;3.90;99.90;;;;;;5069199;28;19913;-86
2022/12/04 08:34:54;;;;;;;;;;;4.00;99.90;;;;;;5055558;28;19909;-83
2022/12/04 08:37:19;;;;;;;;;;;4.00;99.90;;;;;;5070678;28;19909;-88
2022/12/04 08:39:45;;;;;;;;;;;4.00;99.90;;;;;;5070500;28;19916;-86
2022/12/04 08:42:10;;;;;;;;;;;3.90;99.90;;;;;;5070188;28;20274;-87
2022/12/04 08:44:36;;;;;;;;;;;3.80;99.90;;;;;;5070372;28;19916;-86
2022/12/04 08:47:01;;;;;;;;;;;3.80;99.90;;;;;;5074414;28;19909;-86
2022/12/04 08:49:26;;;;;;;;;;;3.80;99.90;;;;;;5074213;28;19973;-86
2022/12/04 08:51:52;;;;;;;;;;;3.80;99.90;;;;;;5074082;28;19908;-86
2022/12/04 08:54:17;;;;;;;;;;;3.80;99.90;;;;;;5081406;28;19912;-87
2022/12/04 08:56:43;;;;;;;;;;;3.90;99.90;;;;;;5086543;28;19940;-87
2022/12/04 08:59:10;;;;;;;;;;;3.90;99.90;;;;;;5086668;28;20281;-88
2022/12/04 09:01:36;;;;;;;;;;;3.90;99.90;;;;;;5087086;28;19908;-87
2022/12/04 09:04:01;;;;;;;;;;;3.90;99.90;;;;;;5086659;28;19916;-88
2022/12/04 09:06:27;;;;;;;;;;;4.00;99.90;;;;;;5115209;22;20027;-81
2022/12/04 09:08:53;;;;;;;;;;;4.10;99.90;;;;;;5074961;28;19912;-83
2022/12/04 09:11:20;;;;;;;;;;;4.10;99.90;;;;;;5073302;28;19908;-82
2022/12/04 09:13:46;;;;;;;;;;;4.10;99.90;;;;;;5074848;28;20410;-82
2022/12/04 09:16:16;;;;;;;;;;;4.20;99.90;;;;;;5087345;28;19962;-82
2022/12/04 09:18:42;;;;;;;;;;;4.10;99.90;;;;;;5094962;28;19908;-82
2022/12/04 09:21:10;;;;;;;;;;;4.20;99.90;;;;;;5093445;28;20073;-81
2022/12/04 09:23:36;;;;;;;;;;;4.20;99.90;;;;;;5094738;28;19916;-82
2022/12/04 09:26:01;;;;;;;;;;;4.30;99.90;;;;;;5094716;28;19908;-82
2022/12/04 09:28:27;;;;;;;;;;;4.30;99.90;;;;;;5093251;28;20281;-82
2022/12/04 09:30:59;;;;;;;;;;;4.30;99.90;;;;;;5094769;28;19912;-83
2022/12/04 09:33:25;;;;;;;;;;;4.20;99.90;;;;;;5094800;28;20308;-83
2022/12/04 09:35:51;;;;;;;;;;;4.20;99.90;;;;;;5093312;28;19916;-83
2022/12/04 09:38:16;;;;;;;;;;;4.30;99.90;;;;;;5093366;28;19912;-82
2022/12/04 09:40:48;;;;;;;;;;;4.20;99.90;;;;;;5094597;28;20554;-82
2022/12/04 09:43:14;;;;;;;;;;;4.20;99.90;;;;;;5092778;28;19908;-82
2022/12/04 09:45:52;;;;;;;;;;;4.30;99.90;;;;;;5094297;28;20336;-83
2022/12/04 09:48:19;;;;;;;;;;;4.20;99.90;;;;;;5092974;28;20280;-82
2022/12/04 09:50:45;;;;;;;;;;;4.20;99.90;;;;;;5094236;28;19950;-82
2022/12/04 09:53:17;;;;;;;;;;;4.30;99.90;;;;;;5094088;28;19909;-82
2022/12/04 09:55:45;;;;;;;;;;;4.30;99.90;;;;;;5092627;28;19955;-82
2022/12/04 09:58:13;;;;;;;;;;;4.30;99.90;;;;;;5092752;28;19908;-83
2022/12/04 10:00:40;;;;;;;;;;;4.30;99.90;;;;;;5092816;28;19915;-82
2022/12/04 10:03:09;;;;;;;;;;;4.30;99.90;;;;;;5094149;28;19908;-82
2022/12/04 10:05:43;;;;;;;;;;;4.30;99.90;;;;;;5094321;28;20432;-82
2022/12/04 10:08:31;;;;;;;;;;;4.30;99.90;;;;;;5092593;28;19908;-81
2022/12/04 10:11:03;;;;;;;;;;;4.30;99.90;;;;;;5090783;28;20520;-83
2022/12/04 10:13:47;;;;;;;;;;;4.30;99.90;;;;;;5092629;28;20037;-82
2022/12/04 10:16:21;;;;;;;;;;;4.30;99.90;;;;;;5092471;28;19908;-82
2022/12/04 10:18:52;;;;;;;;;;;4.40;99.90;;;;;;5093868;28;20293;-82
2022/12/04 10:21:34;;;;;;;;;;;4.50;99.90;;;;;;5093341;28;20309;-82
2022/12/04 10:24:24;;;;;;;;;;;4.50;99.90;;;;;;5093213;28;20388;-82
2022/12/04 10:26:50;;;;;;;;;;;4.60;99.90;;;;;;5093463;28;19916;-82
2022/12/04 10:29:21;;;;;;;;;;;4.60;99.90;;;;;;5092259;28;19919;-85
2022/12/04 10:31:48;;;;;;;;;;;4.60;99.90;;;;;;5085418;28;19912;-86
2022/12/04 10:34:17;;;;;;;;;;;4.70;99.90;;;;;;5076278;28;19908;-85
2022/12/04 10:36:46;;;;;;;;;;;4.70;99.90;;;;;;5093168;28;19931;-83
2022/12/04 10:39:23;;;;;;;;;;;4.80;99.90;;;;;;5091819;28;19914;-85
2022/12/04 10:41:58;;;;;;;;;;;4.80;99.90;;;;;;5091483;28;19912;-83
2022/12/04 10:44:23;;;;;;;;;;;4.90;99.90;;;;;;5092457;28;19951;-84
2022/12/04 10:46:52;;;;;;;;;;;4.90;99.90;;;;;;5090965;28;19915;-86
2022/12/04 10:49:23;;;;;;;;;;;4.90;99.90;;;;;;5093040;28;19916;-84
2022/12/04 10:51:49;;;;;;;;;;;4.90;99.90;;;;;;5092811;28;20380;-84
2022/12/04 10:54:26;;;;;;;;;;;4.90;99.90;;;;;;5092333;28;19942;-84
2022/12/04 10:56:52;;;;;;;;;;;4.90;99.90;;;;;;5091662;28;19912;-85
2022/12/04 10:59:18;;;;;;;;;;;4.90;99.90;;;;;;5091930;28;19999;-85
2022/12/04 11:01:43;;;;;;;;;;;4.80;99.90;;;;;;5091233;28;19951;-87
2022/12/04 11:04:18;;;;;;;;;;;4.80;99.90;;;;;;5091740;28;19913;-84
2022/12/04 11:06:44;;;;;;;;;;;4.80;99.90;;;;;;5091305;28;19916;-86
2022/12/04 11:09:19;;;;;;;;;;;4.80;99.90;;;;;;5091781;28;19923;-84
2022/12/04 11:11:44;;;;;;;;;;;4.90;99.90;;;;;;5091519;28;19959;-86
2022/12/04 11:14:14;;;;;;;;;;;4.90;99.90;;;;;;5092972;28;19920;-87
2022/12/04 11:16:43;;;;;;;;;;;4.80;99.90;;;;;;5091351;28;19908;-85
2022/12/04 11:19:20;;;;;;;;;;;4.90;99.90;;;;;;5091096;28;19919;-85
2022/12/04 11:21:45;;;;;;;;;;;4.90;99.90;;;;;;5092217;28;19947;-84
2022/12/04 11:24:31;;;;;;;;;;;4.90;99.90;;;;;;5092827;28;19908;-85
2022/12/04 11:26:57;;;;;;;;;;;5.00;99.90;;;;;;5091293;28;19912;-86
2022/12/04 11:29:27;;;;;;;;;;;5.00;99.90;;;;;;5091232;28;20270;-84
2022/12/04 11:31:54;;;;;;;;;;;5.00;99.90;;;;;;5092414;28;19957;-84
2022/12/04 11:34:21;;;;;;;;;;;5.00;99.90;;;;;;5091309;28;19909;-85
2022/12/04 11:36:54;;;;;;;;;;;5.00;99.90;;;;;;5091005;28;19912;-85
2022/12/04 11:39:26;;;;;;;;;;;5.10;99.90;;;;;;5092309;28;19908;-84
2022/12/04 11:41:58;;;;;;;;;;;5.10;99.90;;;;;;5089930;28;19916;-85
2022/12/04 11:44:25;;;;;;;;;;;5.10;99.90;;;;;;5091194;28;20365;-85
2022/12/04 11:46:52;;;;;;;;;;;5.10;99.90;;;;;;5090913;28;19908;-86
2022/12/04 11:49:20;;;;;;;;;;;5.10;99.90;;;;;;5091422;28;19946;-86
2022/12/04 11:52:06;;;;;;;;;;;5.20;99.90;;;;;;5092171;28;19957;-85
2022/12/04 11:54:44;;;;;;;;;;;5.20;99.90;;;;;;5092213;28;19908;-85
2022/12/04 11:57:18;;;;;;;;;;;5.20;99.90;;;;;;5083796;28;20002;-86
2022/12/04 11:59:53;;;;;;;;;;;5.20;99.90;;;;;;5090134;28;20346;-84
2022/12/04 12:02:31;;;;;;;;;;;5.20;99.90;;;;;;5078566;28;19908;-84
2022/12/04 12:05:26;;;;;;;;;;;5.20;99.90;;;;;;5090606;28;20373;-84
2022/12/04 12:07:57;;;;;;;;;;;5.20;99.90;;;;;;5085502;28;19935;-86
2022/12/04 12:10:42;;;;;;;;;;;5.20;99.90;;;;;;5094457;28;20034;-84
2022/12/04 12:13:24;;;;;;;;;;;5.20;99.90;;;;;;5094479;28;19914;-84
2022/12/04 12:15:50;;;;;;;;;;;5.20;99.90;;;;;;5094171;28;19908;-84
2022/12/04 12:18:15;;;;;;;;;;;5.30;99.90;;;;;;5094394;28;19912;-83
2022/12/04 12:20:46;;;;;;;;;;;5.20;99.90;;;;;;5096050;28;19908;-83
2022/12/04 12:23:30;;;;;;;;;;;5.20;99.90;;;;;;5095824;28;19994;-83
2022/12/04 12:25:59;;;;;;;;;;;5.20;99.90;;;;;;5094224;28;20006;-83
2022/12/04 12:28:39;;;;;;;;;;;5.20;99.90;;;;;;5096026;28;20280;-82
2022/12/04 12:31:23;;;;;;;;;;;5.20;99.90;;;;;;5093768;28;19915;-83
2022/12/04 12:33:53;;;;;;;;;;;5.30;99.90;;;;;;5095621;28;19943;-83
2022/12/04 12:36:20;;;;;;;;;;;5.30;99.90;;;;;;5094213;28;19916;-83
2022/12/04 12:38:48;;;;;;;;;;;5.20;99.90;;;;;;5095665;28;20297;-83
2022/12/04 12:41:16;;;;;;;;;;;5.20;99.90;;;;;;5094989;28;20054;-83
2022/12/04 12:43:43;;;;;;;;;;;5.20;99.90;;;;;;5095174;28;19915;-83
2022/12/04 12:46:14;;;;;;;;;;;5.20;99.90;;;;;;5095506;28;20380;-82
2022/12/04 12:48:40;;;;;;;;;;;5.20;99.90;;;;;;5093991;28;19908;-83
2022/12/04 12:51:14;;;;;;;;;;;5.20;99.90;;;;;;5093646;28;20478;-82
2022/12/04 12:53:41;;;;;;;;;;;5.20;99.90;;;;;;5095244;28;20367;-82
2022/12/04 12:56:07;;;;;;;;;;;5.30;99.90;;;;;;5093431;28;19919;-83
2022/12/04 12:58:37;;;;;;;;;;;5.30;99.90;;;;;;5093830;28;20292;-82
2022/12/04 13:01:09;;;;;;;;;;;5.30;99.90;;;;;;5094809;28;20472;-83
2022/12/04 13:03:54;;;;;;;;;;;5.40;99.90;;;;;;5095055;28;19909;-83
2022/12/04 13:06:22;;;;;;;;;;;5.30;99.90;;;;;;5086473;28;19916;-85
2022/12/04 13:09:07;;;;;;;;;;;5.30;99.90;;;;;;5092731;28;20277;-83
2022/12/04 13:11:32;;;;;;;;;;;5.30;99.90;;;;;;5094796;28;20289;-82
2022/12/04 13:14:01;;;;;;;;;;;5.30;99.90;;;;;;5093712;28;20010;-82
2022/12/04 13:16:37;;;;;;;;;;;5.30;99.90;;;;;;5094314;28;19912;-83
2022/12/04 13:19:07;;;;;;;;;;;5.30;99.90;;;;;;5094484;28;20387;-82
2022/12/04 13:21:42;;;;;;;;;;;5.40;99.90;;;;;;5093113;28;20400;-82
2022/12/04 13:24:20;;;;;;;;;;;5.40;99.90;;;;;;5094887;28;19908;-82
2022/12/04 13:27:09;;;;;;;;;;;5.40;99.90;;;;;;5093309;28;20014;-82
2022/12/04 13:29:40;;;;;;;;;;;5.30;99.90;;;;;;5094916;28;19912;-83
2022/12/04 13:32:29;;;;;;;;;;;5.30;99.90;;;;;;5093635;28;19908;-85
2022/12/04 13:35:03;;;;;;;;;;;5.40;99.90;;;;;;5097355;28;19908;-85
2022/12/04 13:37:34;;;;;;;;;;;5.30;99.90;;;;;;5094636;28;19916;-83
2022/12/04 13:40:23;;;;;;;;;;;5.40;99.90;;;;;;5093355;28;19915;-84
2022/12/04 13:42:49;;;;;;;;;;;5.40;99.90;;;;;;5087039;28;19930;-83
2022/12/04 13:45:25;;;;;;;;;;;5.40;99.90;;;;;;5093119;28;19908;-83
2022/12/04 13:47:58;;;;;;;;;;;5.40;99.90;;;;;;5094516;28;19915;-82
2022/12/04 13:50:26;;;;;;;;;;;5.40;99.90;;;;;;5093387;28;19984;-82
2022/12/04 13:52:52;;;;;;;;;;;5.40;99.90;;;;;;5094147;28;19947;-85
2022/12/04 13:55:27;;;;;;;;;;;5.40;99.90;;;;;;5093022;28;19915;-83
2022/12/04 13:57:53;;;;;;;;;;;5.40;99.90;;;;;;5094548;28;20284;-84
2022/12/04 14:00:30;;;;;;;;;;;5.40;99.90;;;;;;5093116;28;20384;-83
2022/12/04 14:02:56;;;;;;;;;;;5.40;99.90;;;;;;5093423;28;20045;-85
2022/12/04 14:05:30;;;;;;;;;;;5.40;99.90;;;;;;5075371;28;19916;-82
2022/12/04 14:07:58;;;;;;;;;;;5.40;99.90;;;;;;5084141;28;19908;-85
2022/12/04 14:10:29;;;;;;;;;;;5.40;99.90;;;;;;5092303;28;20423;-84
2022/12/04 14:13:14;;;;;;;;;;;5.40;99.90;;;;;;5092471;28;19908;-85
2022/12/04 14:15:40;;;;;;;;;;;5.40;99.90;;;;;;5091635;28;19998;-84
2022/12/04 14:18:12;;;;;;;;;;;5.30;99.90;;;;;;5091320;28;20126;-86
2022/12/04 14:20:38;;;;;;;;;;;5.30;99.90;;;;;;5090987;28;19908;-84
2022/12/04 14:23:24;;;;;;;;;;;5.30;99.90;;;;;;5093558;28;20285;-85
2022/12/04 14:25:54;;;;;;;;;;;5.30;99.90;;;;;;5093756;28;19908;-84
2022/12/04 14:28:24;;;;;;;;;;;5.30;99.90;;;;;;5093336;28;20269;-84
2022/12/04 14:31:03;;;;;;;;;;;5.30;99.90;;;;;;5092492;28;19913;-84
2022/12/04 14:33:31;;;;;;;;;;;5.30;99.90;;;;;;5094526;28;20393;-85
2022/12/04 14:36:01;;;;;;;;;;;5.30;99.90;;;;;;5094571;28;19922;-84
2022/12/04 14:38:27;;;;;;;;;;;5.30;99.90;;;;;;5092443;28;19961;-82
2022/12/04 14:40:55;;;;;;;;;;;5.30;99.90;;;;;;5092360;28;19912;-84
2022/12/04 14:43:26;;;;;;;;;;;5.30;99.90;;;;;;5092119;28;19908;-86
2022/12/04 14:46:10;;;;;;;;;;;5.30;99.90;;;;;;5092150;28;20357;-85
2022/12/04 14:48:42;;;;;;;;;;;5.30;99.90;;;;;;5092158;28;19908;-83
2022/12/04 14:51:26;;;;;;;;;;;5.30;99.90;;;;;;5092014;28;19954;-82
2022/12/04 14:54:03;;;;;;;;;;;5.30;99.90;;;;;;5092984;28;19951;-83
2022/12/04 14:56:39;;;;;;;;;;;5.30;99.90;;;;;;5092033;28;19908;-85